createdAt,value
2023-02-24T00:01:24.995Z,10.11
2023-02-24T00:05:00.173Z,10.10
2023-02-24T00:08:23.098Z,10.10
2023-02-24T00:11:59.143Z,9.87
2023-02-24T00:15:21.012Z,10.13
2023-02-24T00:18:54.189Z,10.04
2023-02-24T00:22:16.076Z,9.97
2023-02-24T00:25:38.013Z,9.90
2023-02-24T00:29:03.266Z,9.85
2023-02-24T00:32:27.665Z,9.97
2023-02-24T00:36:09.991Z,9.95
2023-02-24T00:39:41.380Z,9.94
2023-02-24T00:43:05.263Z,10.09
2023-02-24T00:46:31.232Z,9.81
2023-02-24T00:49:55.646Z,9.73
2023-02-24T00:53:18.295Z,9.74
2023-02-24T00:56:41.491Z,9.39
2023-02-24T01:00:11.439Z,9.65
2023-02-24T01:03:33.723Z,9.67
2023-02-24T01:07:01.682Z,9.68
2023-02-24T01:10:26.894Z,9.81
2023-02-24T01:13:49.660Z,9.88
2023-02-24T01:17:15.750Z,9.72
2023-02-24T01:20:44.261Z,9.76
2023-02-24T01:24:07.393Z,9.70
2023-02-24T01:27:31.662Z,9.98
2023-02-24T01:30:55.284Z,9.86
2023-02-24T01:34:22.614Z,9.77
2023-02-24T01:37:48.192Z,9.69
2023-02-24T01:41:22.310Z,9.38
2023-02-24T01:45:13.181Z,9.39
2023-02-24T01:48:35.338Z,9.42
2023-02-24T01:52:35.751Z,9.41
2023-02-24T01:56:03.349Z,9.57
2023-02-24T01:59:30.882Z,9.49
2023-02-24T02:03:33.423Z,9.57
2023-02-24T02:07:00.295Z,9.71
2023-02-24T02:10:28.656Z,9.83
2023-02-24T02:13:55.240Z,9.78
2023-02-24T02:17:38.159Z,9.79
2023-02-24T02:21:29.876Z,9.72
2023-02-24T02:25:20.716Z,9.39
2023-02-24T02:28:56.919Z,9.63
2023-02-24T02:33:02.088Z,8.67
2023-02-24T02:37:37.457Z,9.03
2023-02-24T02:41:13.445Z,9.06
2023-02-24T02:44:59.592Z,8.47
2023-02-24T02:48:48.403Z,8.48
2023-02-24T02:53:03.925Z,8.15
2023-02-24T02:56:37.657Z,8.45
2023-02-24T03:00:13.186Z,9.39
2023-02-24T03:03:42.664Z,9.60
2023-02-24T03:07:08.682Z,8.55
2023-02-24T03:10:34.258Z,8.36
2023-02-24T03:13:58.302Z,8.20
2023-02-24T03:17:28.657Z,7.90
2023-02-24T03:21:16.147Z,8.06
2023-02-24T03:24:42.274Z,9.08
2023-02-24T03:28:24.091Z,9.21
2023-02-24T03:32:09.925Z,8.36
2023-02-24T03:35:39.883Z,8.27
2023-02-24T03:39:04.431Z,9.02
2023-02-24T03:42:33.865Z,7.92
2023-02-24T03:46:01.312Z,9.08
2023-02-24T03:49:27.099Z,8.50
2023-02-24T03:53:01.608Z,7.95
2023-02-24T03:57:19.740Z,8.68
2023-02-24T04:00:58.355Z,9.81
2023-02-24T04:04:35.071Z,9.90
2023-02-24T04:08:24.628Z,9.82
2023-02-24T04:12:18.818Z,9.81
2023-02-24T04:15:53.067Z,9.83
2023-02-24T04:19:21.446Z,9.78
2023-02-24T04:22:54.672Z,9.32
2023-02-24T04:26:19.634Z,9.11
2023-02-24T04:29:52.294Z,9.45
2023-02-24T04:33:25.557Z,9.56
2023-02-24T04:36:49.913Z,9.67
2023-02-24T04:40:17.619Z,9.71
2023-02-24T04:43:40.850Z,9.68
2023-02-24T04:47:03.931Z,9.84
2023-02-24T04:50:26.083Z,9.51
2023-02-24T04:53:49.671Z,9.75
2023-02-24T04:57:12.673Z,9.89
2023-02-24T05:00:35.747Z,9.96
2023-02-24T05:04:00.114Z,9.93
2023-02-24T05:07:22.469Z,9.93
2023-02-24T05:10:47.272Z,9.97
2023-02-24T05:14:15.997Z,9.93
2023-02-24T05:17:52.560Z,9.89
2023-02-24T05:21:36.280Z,9.81
2023-02-24T05:24:58.318Z,9.55
2023-02-24T05:28:26.139Z,9.71
2023-02-24T05:31:50.950Z,9.71
2023-02-24T05:35:14.979Z,9.70
2023-02-24T05:38:38.069Z,9.72
2023-02-24T05:42:07.204Z,9.68
2023-02-24T05:45:43.175Z,9.65
2023-02-24T05:49:16.346Z,9.27
2023-02-24T05:52:39.330Z,9.35
2023-02-24T05:56:05.740Z,9.42
2023-02-24T05:59:32.665Z,9.25
2023-02-24T06:03:07.524Z,9.12
2023-02-24T06:06:29.470Z,9.23
2023-02-24T06:09:57.755Z,9.20
2023-02-24T06:13:20.652Z,9.28
2023-02-24T06:16:48.434Z,9.16
2023-02-24T06:20:15.234Z,8.94
2023-02-24T06:23:41.381Z,9.02
2023-02-24T06:27:17.437Z,9.03
2023-02-24T06:30:46.716Z,9.04
2023-02-24T06:34:13.064Z,9.01
2023-02-24T06:37:35.764Z,9.12
2023-02-24T06:41:10.752Z,9.18
2023-02-24T06:44:41.134Z,9.17
2023-02-24T06:48:11.930Z,9.02
2023-02-24T06:51:35.915Z,9.19
2023-02-24T06:54:57.764Z,9.34
2023-02-24T06:58:21.005Z,9.30
2023-02-24T07:01:45.318Z,9.49
2023-02-24T07:05:14.474Z,9.55
2023-02-24T07:08:46.094Z,9.50
2023-02-24T07:12:11.041Z,9.67
2023-02-24T07:15:37.053Z,9.61
2023-02-24T07:19:02.688Z,9.66
2023-02-24T07:22:31.763Z,9.72
2023-02-24T07:25:58.421Z,9.88
2023-02-24T07:29:20.266Z,9.56
2023-02-24T07:32:42.496Z,9.72
2023-02-24T07:36:08.583Z,9.55
2023-02-24T07:39:34.891Z,9.81
2023-02-24T07:42:57.200Z,9.74
2023-02-24T07:46:26.365Z,10.03
2023-02-24T07:49:49.588Z,10.11
2023-02-24T07:53:12.088Z,10.18
2023-02-24T07:56:46.003Z,10.33
2023-02-24T08:00:18.885Z,10.70
2023-02-24T08:03:45.279Z,10.55
2023-02-24T08:07:14.239Z,10.77
2023-02-24T08:10:37.308Z,10.71
2023-02-24T08:13:59.215Z,11.03
2023-02-24T08:17:26.972Z,11.14
2023-02-24T08:20:52.292Z,10.88
2023-02-24T08:24:25.332Z,10.97
2023-02-24T08:28:12.761Z,11.48
2023-02-24T08:31:41.001Z,10.97
2023-02-24T08:35:16.640Z,10.79
2023-02-24T08:38:42.083Z,10.97
2023-02-24T08:42:04.783Z,11.00
2023-02-24T08:45:33.547Z,12.01
2023-02-24T08:49:01.080Z,12.15
2023-02-24T08:52:29.803Z,11.59
2023-02-24T08:55:53.522Z,11.79
2023-02-24T08:59:37.235Z,11.97
2023-02-24T09:03:08.158Z,12.04
2023-02-24T09:07:10.726Z,12.27
2023-02-24T09:10:33.260Z,11.91
2023-02-24T09:13:58.122Z,13.01
2023-02-24T09:17:45.777Z,13.26
2023-02-24T09:21:33.500Z,13.44
2023-02-24T09:25:15.355Z,13.31
2023-02-24T09:28:48.526Z,13.52
2023-02-24T09:32:14.688Z,13.48
2023-02-24T09:36:10.211Z,13.83
2023-02-24T09:39:55.786Z,14.20
2023-02-24T09:43:30.378Z,14.28
2023-02-24T09:47:08.695Z,13.84
2023-02-24T09:51:03.593Z,13.77
2023-02-24T09:54:35.325Z,13.68
2023-02-24T09:58:16.957Z,13.98
2023-02-24T10:02:34.352Z,14.41
2023-02-24T10:06:12.262Z,14.74
2023-02-24T10:09:50.282Z,14.99
2023-02-24T10:13:32.638Z,14.57
2023-02-24T10:17:31.803Z,14.76
2023-02-24T10:22:00.170Z,14.62
2023-02-24T10:25:54.002Z,14.88
2023-02-24T10:29:36.227Z,14.51
2023-02-24T10:33:05.942Z,14.61
2023-02-24T10:36:35.151Z,15.07
2023-02-24T10:40:09.873Z,15.11
2023-02-24T10:43:45.300Z,15.17
2023-02-24T10:47:12.949Z,15.13
2023-02-24T10:50:56.034Z,15.46
2023-02-24T10:54:48.319Z,15.86
2023-02-24T10:58:38.156Z,16.24
2023-02-24T11:02:29.423Z,16.08
2023-02-24T11:06:42.217Z,15.75
2023-02-24T11:10:11.877Z,14.37
2023-02-24T11:13:55.203Z,14.93
2023-02-24T11:17:29.161Z,15.02
2023-02-24T11:20:58.245Z,14.79
2023-02-24T11:24:22.198Z,14.16
2023-02-24T11:27:51.817Z,13.59
2023-02-24T11:31:33.828Z,13.56
2023-02-24T11:35:22.411Z,14.01
2023-02-24T11:39:22.547Z,14.25
2023-02-24T11:42:57.293Z,14.38
2023-02-24T11:46:54.295Z,14.72
2023-02-24T11:50:39.756Z,14.44
2023-02-24T11:54:11.097Z,14.74
2023-02-24T11:57:43.482Z,15.25
2023-02-24T12:01:44.320Z,15.31
2023-02-24T12:05:19.444Z,15.46
2023-02-24T12:08:50.520Z,15.32
2023-02-24T12:12:44.498Z,15.43
2023-02-24T12:16:28.113Z,15.12
2023-02-24T12:20:34.389Z,14.55
2023-02-24T12:23:59.045Z,14.12
2023-02-24T12:27:33.151Z,14.29
2023-02-24T12:31:32.678Z,14.36
2023-02-24T12:35:41.882Z,14.43
2023-02-24T12:39:15.808Z,14.73
2023-02-24T12:43:06.136Z,14.75
2023-02-24T12:46:38.286Z,14.71
2023-02-24T12:50:45.520Z,14.39
2023-02-24T12:54:19.944Z,14.62
2023-02-24T12:58:20.664Z,15.09
2023-02-24T13:02:13.349Z,15.04
2023-02-24T13:06:16.471Z,14.65
2023-02-24T13:09:47.155Z,14.56
2023-02-24T13:13:23.390Z,14.89
2023-02-24T13:16:45.377Z,14.89
2023-02-24T13:20:12.193Z,14.94
2023-02-24T13:23:41.692Z,15.27
2023-02-24T13:27:23.918Z,15.50
2023-02-24T13:30:47.225Z,15.27
2023-02-24T13:34:41.691Z,15.19
2023-02-24T13:38:31.448Z,14.04
2023-02-24T13:42:20.177Z,14.56
2023-02-24T13:46:01.829Z,14.61
2023-02-24T13:50:14.871Z,14.57
2023-02-24T13:54:27.222Z,14.19
2023-02-24T13:58:17.631Z,13.12
2023-02-24T14:02:01.896Z,12.60
2023-02-24T14:05:37.129Z,12.10
2023-02-24T14:09:05.679Z,11.58
2023-02-24T14:12:37.144Z,11.48
2023-02-24T14:16:05.003Z,11.07
2023-02-24T14:19:29.196Z,11.25
2023-02-24T14:22:55.212Z,11.44
2023-02-24T14:26:20.379Z,11.89
2023-02-24T14:29:45.387Z,11.45
2023-02-24T14:33:36.117Z,11.98
2023-02-24T14:37:03.008Z,11.99
2023-02-24T14:40:26.008Z,12.01
2023-02-24T14:43:53.467Z,12.26
2023-02-24T14:47:19.367Z,12.08
2023-02-24T14:50:41.453Z,12.30
2023-02-24T14:54:15.950Z,12.29
2023-02-24T14:58:05.907Z,12.08
2023-02-24T15:01:36.674Z,11.77
2023-02-24T15:05:00.112Z,11.74
2023-02-24T15:08:43.007Z,11.51
2023-02-24T15:12:18.533Z,11.31
2023-02-24T15:15:45.847Z,11.18
2023-02-24T15:19:47.030Z,10.98
2023-02-24T15:23:32.012Z,11.52
2023-02-24T15:27:02.980Z,11.56
2023-02-24T15:31:01.215Z,11.55
2023-02-24T15:34:34.952Z,11.43
2023-02-24T15:37:57.899Z,10.57
2023-02-24T15:41:22.650Z,10.42
2023-02-24T15:45:02.743Z,10.98
2023-02-24T15:48:31.088Z,10.94
2023-02-24T15:51:59.509Z,10.11
2023-02-24T15:55:28.680Z,10.61
2023-02-24T15:58:53.638Z,9.97
2023-02-24T16:02:20.279Z,10.00
2023-02-24T16:05:42.109Z,9.91
2023-02-24T16:09:25.935Z,9.88
2023-02-24T16:12:57.876Z,9.90
2023-02-24T16:16:21.469Z,9.74
2023-02-24T16:19:48.688Z,9.62
2023-02-24T16:23:23.882Z,9.61
2023-02-24T16:26:47.936Z,9.53
2023-02-24T16:30:21.434Z,9.49
2023-02-24T16:33:55.071Z,9.46
2023-02-24T16:37:23.408Z,9.30
2023-02-24T16:40:49.083Z,9.26
2023-02-24T16:44:12.899Z,9.12
2023-02-24T16:47:37.354Z,8.97
2023-02-24T16:50:59.197Z,8.85
2023-02-24T16:54:30.027Z,8.78
2023-02-24T16:57:56.936Z,8.63
2023-02-24T17:01:21.433Z,8.20
2023-02-24T17:04:43.507Z,9.09
2023-02-24T17:08:05.399Z,9.04
2023-02-24T17:11:29.986Z,8.12
2023-02-24T17:14:59.448Z,8.15
2023-02-24T17:18:26.633Z,8.10
2023-02-24T17:21:49.652Z,8.12
2023-02-24T17:25:19.998Z,8.72
2023-02-24T17:28:42.330Z,8.71
2023-02-24T17:32:05.642Z,8.78
2023-02-24T17:35:28.934Z,8.87
2023-02-24T17:38:50.824Z,9.05
2023-02-24T17:42:12.723Z,9.25
2023-02-24T17:45:35.398Z,9.38
2023-02-24T17:49:00.653Z,9.48
2023-02-24T17:52:23.706Z,9.33
2023-02-24T17:56:01.471Z,9.15
2023-02-24T17:59:25.083Z,9.37
2023-02-24T18:02:47.006Z,9.38
2023-02-24T18:06:15.978Z,9.42
2023-02-24T18:09:38.876Z,9.43
2023-02-24T18:13:00.784Z,9.43
2023-02-24T18:16:22.997Z,9.20
2023-02-24T18:19:46.134Z,8.69
2023-02-24T18:23:07.958Z,9.31
2023-02-24T18:26:31.162Z,9.41
2023-02-24T18:29:54.318Z,9.06
2023-02-24T18:33:16.573Z,8.96
2023-02-24T18:36:38.752Z,8.94
2023-02-24T18:40:00.635Z,8.81
2023-02-24T18:43:22.495Z,8.73
2023-02-24T18:46:44.550Z,7.95
2023-02-24T18:50:08.752Z,7.95
2023-02-24T18:53:41.663Z,8.67
2023-02-24T18:57:03.575Z,8.51
2023-02-24T19:00:47.221Z,8.62
2023-02-24T19:04:13.635Z,8.50
2023-02-24T19:07:37.641Z,8.40
2023-02-24T19:10:59.484Z,8.41
2023-02-24T19:14:22.462Z,8.27
2023-02-24T19:17:45.475Z,7.69
2023-02-24T19:21:13.618Z,7.41
2023-02-24T19:24:35.467Z,7.45
2023-02-24T19:27:57.339Z,7.56
2023-02-24T19:31:26.941Z,7.40
2023-02-24T19:34:49.262Z,8.11
2023-02-24T19:38:18.514Z,7.62
2023-02-24T19:41:41.591Z,7.64
2023-02-24T19:45:03.700Z,7.60
2023-02-24T19:48:26.606Z,8.10
2023-02-24T19:51:48.620Z,8.16
2023-02-24T19:55:16.697Z,8.08
2023-02-24T19:58:41.813Z,7.92
2023-02-24T20:02:03.809Z,8.07
2023-02-24T20:05:25.703Z,7.25
2023-02-24T20:08:56.120Z,7.28
2023-02-24T20:12:17.978Z,7.96
2023-02-24T20:15:39.826Z,8.01
2023-02-24T20:19:03.703Z,8.13
2023-02-24T20:22:26.816Z,8.21
2023-02-24T20:25:53.593Z,8.37
2023-02-24T20:29:18.570Z,8.28
2023-02-24T20:32:40.458Z,8.13
2023-02-24T20:36:22.252Z,7.61
2023-02-24T20:39:44.707Z,7.48
2023-02-24T20:43:09.460Z,7.47
2023-02-24T20:46:33.022Z,8.16
2023-02-24T20:49:54.900Z,7.36
2023-02-24T20:53:17.216Z,7.32
2023-02-24T20:56:42.159Z,7.43
2023-02-24T21:00:07.711Z,7.51
2023-02-24T21:03:29.539Z,8.02
2023-02-24T21:06:51.989Z,8.12
2023-02-24T21:10:14.970Z,8.18
2023-02-24T21:13:42.116Z,7.85
2023-02-24T21:17:03.943Z,7.05
2023-02-24T21:20:25.820Z,6.83
2023-02-24T21:23:48.475Z,6.58
2023-02-24T21:27:12.288Z,6.65
2023-02-24T21:30:34.210Z,6.72
2023-02-24T21:33:56.634Z,7.37
2023-02-24T21:37:20.542Z,7.44
2023-02-24T21:40:45.059Z,7.68
2023-02-24T21:44:07.544Z,7.63
2023-02-24T21:47:32.307Z,6.89
2023-02-24T21:51:09.450Z,6.97
2023-02-24T21:54:32.917Z,7.60
2023-02-24T21:57:54.837Z,7.31
2023-02-24T22:01:29.638Z,7.47
2023-02-24T22:04:52.611Z,7.54
2023-02-24T22:08:15.859Z,7.46
2023-02-24T22:11:47.433Z,7.32
2023-02-24T22:15:11.540Z,7.28
2023-02-24T22:18:37.577Z,7.29
2023-02-24T22:21:59.899Z,7.52
2023-02-24T22:25:21.860Z,6.91
2023-02-24T22:28:46.818Z,6.85
2023-02-24T22:32:09.132Z,7.35
2023-02-24T22:35:37.148Z,6.61
2023-02-24T22:39:01.406Z,6.61
2023-02-24T22:42:29.254Z,6.54
2023-02-24T22:46:02.326Z,6.78
2023-02-24T22:49:25.688Z,6.85
2023-02-24T22:52:48.935Z,7.52
2023-02-24T22:56:13.571Z,6.79
2023-02-24T22:59:43.508Z,6.56
2023-02-24T23:03:05.417Z,6.68
2023-02-24T23:06:29.064Z,7.48
2023-02-24T23:09:54.137Z,7.59
2023-02-24T23:13:17.204Z,7.38
2023-02-24T23:16:45.146Z,7.06
2023-02-24T23:20:14.174Z,6.19
2023-02-24T23:23:37.541Z,6.15
2023-02-24T23:27:00.603Z,6.60
2023-02-24T23:30:22.758Z,6.54
2023-02-24T23:33:45.860Z,6.02
2023-02-24T23:37:11.857Z,6.71
2023-02-24T23:40:48.096Z,6.02
2023-02-24T23:44:13.368Z,6.88
2023-02-24T23:47:35.880Z,7.10
2023-02-24T23:50:57.801Z,7.09
2023-02-24T23:54:20.269Z,7.12
2023-02-24T23:57:42.268Z,6.98
